Time;durP1;ratioP1;P1;durP2;ratioP2;P2;SDS_P1;SDS_P2;PMS_P1;PMS_P2;Temp;Humidity;BMP_temperature;BMP_pressure;BME280_temperature;BME280_humidity;BME280_pressure;Samples;Min_cycle;Max_cycle;Signal;HPM_P1;HPM_P2
2022/01/14 00:00:41;;;;;;;28.83;19.17;;;4.40;99.90;;;;;;5029198;28;20202;-24
2022/01/14 00:03:11;;;;;;;27.00;18.23;;;4.40;99.90;;;;;;5028291;28;20672;-24
2022/01/14 00:05:38;;;;;;;29.23;18.50;;;4.40;99.90;;;;;;5028958;28;20236;-24
2022/01/14 00:08:05;;;;;;;32.97;18.20;;;4.40;99.90;;;;;;5029061;28;20693;-24
2022/01/14 00:10:36;;;;;;;31.50;19.40;;;4.30;99.90;;;;;;5028983;28;20204;-24
2022/01/14 00:13:14;;;;;;;31.57;20.23;;;4.40;99.90;;;;;;5028710;28;20729;-24
2022/01/14 00:15:44;;;;;;;28.27;19.17;;;4.30;99.90;;;;;;5028957;28;20564;-24
2022/01/14 00:18:11;;;;;;;28.70;18.83;;;4.30;99.90;;;;;;5027745;28;20621;-24
2022/01/14 00:20:40;;;;;;;30.00;19.17;;;4.30;99.90;;;;;;5028801;28;20667;-24
2022/01/14 00:23:08;;;;;;;28.93;19.60;;;4.30;99.90;;;;;;5028703;28;20205;-24
2022/01/14 00:33:36;;;;;;;31.30;19.57;;;4.20;99.90;;;;;;5027059;28;20221;-24
2022/01/14 00:36:06;;;;;;;27.27;18.80;;;4.10;99.90;;;;;;5028255;28;20197;-24
2022/01/14 00:38:33;;;;;;;28.93;18.57;;;4.10;99.90;;;;;;5026461;28;20291;-24
2022/01/14 00:41:00;;;;;;;26.17;18.53;;;4.10;99.90;;;;;;5027389;28;20205;-24
2022/01/14 00:43:27;;;;;;;26.87;17.50;;;4.10;99.90;;;;;;5027842;28;20201;-24
2022/01/14 00:45:55;;;;;;;27.17;18.53;;;4.00;99.90;;;;;;5027807;28;20208;-24
2022/01/14 00:48:26;;;;;;;25.07;17.30;;;4.00;99.90;;;;;;5025585;28;20201;-24
2022/01/14 00:50:53;;;;;;;25.87;16.77;;;4.00;99.90;;;;;;5011872;28;20327;-24
2022/01/14 00:53:21;;;;;;;26.60;18.43;;;4.00;99.90;;;;;;5007926;28;20213;-24
2022/01/14 00:55:55;;;;;;;23.67;17.73;;;4.00;99.90;;;;;;5007117;28;20690;-24
2022/01/14 01:01:08;;;;;;;27.03;18.37;;;3.90;99.90;;;;;;5008262;28;20305;-24
2022/01/14 01:03:35;;;;;;;26.13;17.17;;;3.90;99.90;;;;;;5007283;28;20252;-24
2022/01/14 01:06:03;;;;;;;26.23;17.10;;;3.90;99.90;;;;;;5011771;28;20232;-24
2022/01/14 01:08:32;;;;;;;26.37;17.93;;;3.80;99.90;;;;;;5027622;28;20699;-24
2022/01/14 01:10:59;;;;;;;34.47;19.07;;;3.80;99.90;;;;;;5027499;28;21075;-24
2022/01/14 01:13:34;;;;;;;28.07;18.37;;;3.80;99.90;;;;;;5027446;28;20242;-24
2022/01/14 01:16:02;;;;;;;27.43;17.90;;;3.80;99.90;;;;;;5027340;28;20294;-24
2022/01/14 01:18:29;;;;;;;29.17;18.97;;;3.70;99.90;;;;;;5026552;28;20252;-24
2022/01/14 01:20:56;;;;;;;31.77;20.00;;;3.70;99.90;;;;;;5022510;28;20193;-24
2022/01/14 01:23:24;;;;;;;33.23;20.13;;;3.70;99.90;;;;;;5045662;28;20217;-25
2022/01/14 01:26:00;;;;;;;32.07;20.23;;;3.60;99.90;;;;;;5026769;28;20214;-24
2022/01/14 01:28:27;;;;;;;32.13;19.57;;;3.60;99.90;;;;;;5027307;28;20252;-24
2022/01/14 01:33:22;;;;;;;28.73;18.93;;;3.60;99.90;;;;;;5026675;28;20235;-25
2022/01/14 01:35:49;;;;;;;32.90;20.63;;;3.50;99.90;;;;;;5025794;28;20246;-25
2022/01/14 01:38:17;;;;;;;29.80;20.47;;;3.50;99.90;;;;;;5027493;28;20746;-24
2022/01/14 01:40:47;;;;;;;32.30;20.73;;;3.50;99.90;;;;;;5025540;28;20213;-25
2022/01/14 01:43:16;;;;;;;32.67;20.00;;;3.50;99.90;;;;;;5027288;28;20288;-25
2022/01/14 01:45:47;;;;;;;31.20;20.80;;;3.40;99.90;;;;;;5025917;28;20521;-25
2022/01/14 01:48:15;;;;;;;31.87;20.07;;;3.40;99.90;;;;;;5026859;28;20201;-25
2022/01/14 01:50:43;;;;;;;34.80;21.27;;;3.40;99.90;;;;;;5027161;28;20331;-25
2022/01/14 01:53:10;;;;;;;35.20;20.17;;;3.30;99.90;;;;;;5026203;28;20282;-25
2022/01/14 01:55:38;;;;;;;30.83;21.07;;;3.30;99.90;;;;;;5026156;28;20734;-24
2022/01/14 01:58:05;;;;;;;32.63;21.20;;;3.30;99.90;;;;;;5024709;28;20201;-24
2022/01/14 02:00:32;;;;;;;31.83;21.37;;;3.30;99.90;;;;;;5027412;28;20691;-25
2022/01/14 02:03:02;;;;;;;31.37;20.20;;;3.20;99.90;;;;;;5026025;28;20205;-24
2022/01/14 02:05:32;;;;;;;32.50;20.60;;;3.20;99.90;;;;;;5027122;28;20209;-25
2022/01/14 02:08:02;;;;;;;31.23;19.97;;;3.20;99.90;;;;;;5027992;28;20233;-25
2022/01/14 02:10:29;;;;;;;33.50;21.10;;;3.20;99.90;;;;;;5030606;28;20771;-25
2022/01/14 02:12:59;;;;;;;33.63;20.80;;;3.20;99.90;;;;;;5029847;28;20200;-25
2022/01/14 02:15:30;;;;;;;34.07;20.30;;;3.10;99.90;;;;;;5029278;28;20629;-25
2022/01/14 02:23:16;;;;;;;32.23;20.97;;;3.10;99.90;;;;;;5016629;28;20192;-25
2022/01/14 02:25:46;;;;;;;32.87;21.33;;;3.10;99.90;;;;;;5030062;28;20880;-25
2022/01/14 02:28:16;;;;;;;33.50;20.10;;;3.00;99.90;;;;;;5029987;28;20236;-25
2022/01/14 02:30:47;;;;;;;36.90;21.43;;;3.00;99.90;;;;;;5029737;28;20243;-25
2022/01/14 02:33:16;;;;;;;40.60;21.73;;;3.00;99.90;;;;;;5029377;28;20577;-25
2022/01/14 02:35:48;;;;;;;34.63;20.90;;;3.00;99.90;;;;;;5029939;28;20703;-24
2022/01/14 02:38:17;;;;;;;36.57;21.83;;;3.00;99.90;;;;;;5030091;28;20223;-25
2022/01/14 02:40:48;;;;;;;36.97;22.70;;;3.00;99.90;;;;;;5028380;28;20956;-25
2022/01/14 02:43:17;;;;;;;37.20;21.77;;;3.00;99.90;;;;;;5030325;28;20207;-25
2022/01/14 02:45:52;;;;;;;35.37;21.97;;;3.00;99.90;;;;;;5029948;28;20207;-24
2022/01/14 02:48:23;;;;;;;35.27;21.97;;;3.00;99.90;;;;;;5008042;28;20213;-25
2022/01/14 02:56:04;;;;;;;36.23;21.33;;;2.90;99.90;;;;;;5012496;28;20241;-25
2022/01/14 02:58:33;;;;;;;33.80;21.27;;;2.90;99.90;;;;;;5024929;28;20240;-25
2022/01/14 03:01:10;;;;;;;40.63;22.83;;;2.90;99.90;;;;;;5010190;28;20292;-25
2022/01/14 03:03:39;;;;;;;35.83;21.67;;;3.00;99.90;;;;;;5009288;28;20308;-25
2022/01/14 03:06:07;;;;;;;37.13;21.77;;;3.00;99.90;;;;;;5022537;28;20237;-25
2022/01/14 03:08:34;;;;;;;35.53;22.57;;;3.00;99.90;;;;;;5029407;28;20698;-25
2022/01/14 03:11:13;;;;;;;38.40;21.83;;;3.00;99.90;;;;;;5028914;28;20217;-25
2022/01/14 03:13:43;;;;;;;34.90;22.00;;;3.00;99.90;;;;;;5029544;28;20287;-25
2022/01/14 03:16:10;;;;;;;34.37;22.07;;;3.00;99.90;;;;;;5029656;28;20869;-26
2022/01/14 03:18:46;;;;;;;36.03;22.30;;;3.00;99.90;;;;;;5028632;28;20325;-26
2022/01/14 03:21:16;;;;;;;33.73;21.90;;;2.90;99.90;;;;;;5028813;28;20752;-26
2022/01/14 03:23:51;;;;;;;38.03;21.97;;;2.90;99.90;;;;;;5029083;28;20654;-26
2022/01/14 03:26:23;;;;;;;34.07;22.10;;;2.90;99.90;;;;;;5028877;28;20205;-26
2022/01/14 03:28:52;;;;;;;33.97;21.20;;;3.00;99.90;;;;;;5027721;28;20244;-26
2022/01/14 03:31:20;;;;;;;33.77;20.67;;;2.90;99.90;;;;;;5011221;28;20212;-25
2022/01/14 03:33:50;;;;;;;35.93;22.30;;;2.90;99.90;;;;;;5008747;28;20574;-25
2022/01/14 03:36:17;;;;;;;33.17;21.70;;;2.90;99.90;;;;;;5009113;28;20245;-25
2022/01/14 03:38:44;;;;;;;35.03;21.27;;;2.90;99.90;;;;;;5010733;28;20293;-25
2022/01/14 03:41:11;;;;;;;37.03;22.43;;;2.90;99.90;;;;;;5028764;28;20755;-25
2022/01/14 03:43:43;;;;;;;36.07;21.60;;;2.90;99.90;;;;;;5029307;28;20201;-25
2022/01/14 03:46:13;;;;;;;33.53;22.20;;;2.90;99.90;;;;;;5029150;28;20245;-25
2022/01/14 03:48:42;;;;;;;34.27;20.87;;;2.90;99.90;;;;;;5027954;28;20291;-25
2022/01/14 03:51:12;;;;;;;36.07;21.90;;;2.90;99.90;;;;;;5028678;28;20252;-25
2022/01/14 03:53:40;;;;;;;34.77;21.87;;;2.90;99.90;;;;;;5027365;28;20208;-25
2022/01/14 03:56:07;;;;;;;34.77;22.00;;;2.90;99.90;;;;;;5013171;28;20718;-24
2022/01/14 03:58:39;;;;;;;37.33;21.83;;;3.00;99.90;;;;;;5029274;28;20558;-25
2022/01/14 04:01:08;;;;;;;37.27;21.27;;;3.00;99.90;;;;;;5028511;28;20208;-25
2022/01/14 04:03:36;;;;;;;36.43;21.23;;;3.00;99.90;;;;;;5027833;28;20660;-25
2022/01/14 04:06:06;;;;;;;36.87;21.77;;;3.00;99.90;;;;;;5028558;28;20213;-25
2022/01/14 04:08:39;;;;;;;34.90;21.33;;;3.00;99.90;;;;;;5028518;28;20205;-25
2022/01/14 04:11:10;;;;;;;38.13;22.33;;;3.00;99.90;;;;;;5026796;28;20224;-25
2022/01/14 04:13:49;;;;;;;33.40;21.37;;;3.00;99.90;;;;;;5027950;28;20339;-25
2022/01/14 04:16:18;;;;;;;35.63;21.57;;;3.00;99.90;;;;;;5011461;28;20355;-25
2022/01/14 04:18:49;;;;;;;37.67;22.07;;;3.00;99.90;;;;;;5027420;28;20207;-25
2022/01/14 04:21:17;;;;;;;36.33;21.40;;;3.00;99.90;;;;;;5027043;28;20564;-24
2022/01/14 04:23:46;;;;;;;33.27;22.03;;;3.00;99.90;;;;;;5010533;28;20312;-25
2022/01/14 04:26:17;;;;;;;35.00;22.00;;;3.00;99.90;;;;;;5007727;28;20202;-25
2022/01/14 04:28:46;;;;;;;35.90;21.93;;;3.00;99.90;;;;;;5008334;28;20206;-25
2022/01/14 04:31:13;;;;;;;36.67;22.53;;;3.00;99.90;;;;;;5021079;28;20676;-25
2022/01/14 04:33:42;;;;;;;35.30;21.27;;;3.00;99.90;;;;;;5027159;28;20236;-25
2022/01/14 04:36:12;;;;;;;35.00;21.60;;;3.00;99.90;;;;;;5026707;28;20659;-24
2022/01/14 04:38:41;;;;;;;37.10;22.03;;;3.00;99.90;;;;;;5027614;28;20247;-25
2022/01/14 04:41:09;;;;;;;38.10;22.07;;;3.00;99.90;;;;;;5026227;28;20204;-25
2022/01/14 04:43:39;;;;;;;36.57;21.53;;;3.00;99.90;;;;;;5027564;28;20589;-25
2022/01/14 04:48:35;;;;;;;37.27;21.47;;;3.00;99.90;;;;;;5026815;28;20263;-25
2022/01/14 04:51:05;;;;;;;38.13;22.13;;;3.00;99.90;;;;;;5027749;28;20240;-25
2022/01/14 04:53:37;;;;;;;36.77;22.10;;;3.00;99.90;;;;;;5028080;28;20216;-25
2022/01/14 04:56:04;;;;;;;36.33;22.10;;;3.00;99.90;;;;;;5008204;28;20778;-24
2022/01/14 04:58:32;;;;;;;36.90;21.57;;;3.10;99.90;;;;;;5007927;28;20917;-25
2022/01/14 05:00:59;;;;;;;36.07;22.07;;;3.10;99.90;;;;;;5008004;28;20213;-24
2022/01/14 05:03:27;;;;;;;35.30;20.90;;;3.00;99.90;;;;;;5007080;28;20248;-25
2022/01/14 05:05:59;;;;;;;41.60;23.23;;;3.10;99.90;;;;;;5026929;28;20302;-25
2022/01/14 05:08:35;;;;;;;34.50;20.80;;;3.10;99.90;;;;;;5027837;28;20263;-25
2022/01/14 05:11:37;;;;;;;38.10;21.83;;;3.10;99.90;;;;;;5027326;28;20612;-24
2022/01/14 05:13:51;;;;;;;34.20;21.70;;;3.10;99.90;;;;;;5027158;28;20207;-25
2022/01/14 05:16:18;;;;;;;34.63;21.73;;;3.10;99.90;;;;;;5027375;28;20312;-25
2022/01/14 05:18:45;;;;;;;35.13;22.27;;;3.10;99.90;;;;;;5026433;28;20234;-25
2022/01/14 05:21:15;;;;;;;37.67;21.20;;;3.10;99.90;;;;;;5027253;28;20299;-25
2022/01/14 05:23:44;;;;;;;39.03;22.50;;;3.10;99.90;;;;;;5025745;28;20201;-25
2022/01/14 05:26:11;;;;;;;33.50;20.90;;;3.10;99.90;;;;;;5026778;28;20332;-24
2022/01/14 05:28:41;;;;;;;42.53;23.93;;;3.10;99.90;;;;;;5026952;28;20211;-25
2022/01/14 05:31:11;;;;;;;36.93;22.13;;;3.10;99.90;;;;;;5027325;28;20212;-25
2022/01/14 05:33:41;;;;;;;37.47;21.93;;;3.10;99.90;;;;;;5026430;28;20212;-25
2022/01/14 05:36:08;;;;;;;33.13;21.73;;;3.10;99.90;;;;;;5027122;28;20240;-24
2022/01/14 05:38:35;;;;;;;33.63;22.13;;;3.10;99.90;;;;;;5027009;28;20200;-25
2022/01/14 05:41:05;;;;;;;37.53;23.40;;;3.10;99.90;;;;;;5025165;28;20329;-24
2022/01/14 05:43:32;;;;;;;38.23;23.90;;;3.10;99.90;;;;;;5029454;28;20205;-24
2022/01/14 05:45:59;;;;;;;40.83;23.20;;;3.10;99.90;;;;;;5031365;28;21021;-24
2022/01/14 05:48:29;;;;;;;34.77;22.27;;;3.10;99.90;;;;;;5030642;28;20220;-24
2022/01/14 05:50:56;;;;;;;35.57;21.73;;;3.10;99.90;;;;;;5030726;28;20240;-25
2022/01/14 05:53:23;;;;;;;36.47;22.13;;;3.10;99.90;;;;;;5030948;28;20223;-25
2022/01/14 05:55:50;;;;;;;35.10;21.63;;;3.10;99.90;;;;;;5023389;28;20233;-25
2022/01/14 05:58:20;;;;;;;33.73;20.97;;;3.10;99.90;;;;;;5031103;28;20606;-25
2022/01/14 06:00:47;;;;;;;38.40;23.37;;;3.00;99.90;;;;;;5029348;28;20201;-25
2022/01/14 06:03:15;;;;;;;37.27;23.70;;;3.00;99.90;;;;;;5030019;28;20208;-25
2022/01/14 06:05:42;;;;;;;35.73;22.83;;;3.00;99.90;;;;;;5030927;28;20208;-24
2022/01/14 06:08:11;;;;;;;36.77;22.80;;;3.00;99.90;;;;;;5030595;28;20669;-24
2022/01/14 06:10:39;;;;;;;43.23;24.53;;;3.00;99.90;;;;;;5030754;28;20208;-24
2022/01/14 06:13:06;;;;;;;38.63;22.97;;;3.00;99.90;;;;;;5030266;28;20212;-24
2022/01/14 06:15:34;;;;;;;35.70;22.13;;;3.00;99.90;;;;;;5030786;28;20882;-25
2022/01/14 06:18:01;;;;;;;38.30;23.50;;;3.00;99.90;;;;;;5029790;28;20408;-24
2022/01/14 06:20:28;;;;;;;42.27;23.97;;;3.00;99.90;;;;;;5029073;28;20527;-25
2022/01/14 06:22:56;;;;;;;37.87;23.50;;;3.00;99.90;;;;;;5028798;28;20196;-25
2022/01/14 06:25:23;;;;;;;37.93;24.07;;;3.00;99.90;;;;;;5020022;28;20217;-25
2022/01/14 06:27:50;;;;;;;38.27;22.57;;;3.00;99.90;;;;;;5025004;28;20664;-25
2022/01/14 06:30:23;;;;;;;41.07;23.37;;;3.00;99.90;;;;;;5025044;28;20320;-25
2022/01/14 06:32:54;;;;;;;35.53;23.47;;;3.00;99.90;;;;;;5029349;28;20591;-24
2022/01/14 06:35:22;;;;;;;40.83;23.47;;;3.00;99.90;;;;;;5030135;28;20321;-25
2022/01/14 06:37:49;;;;;;;38.40;24.67;;;3.00;99.90;;;;;;5029919;28;20251;-25
2022/01/14 06:40:19;;;;;;;37.57;22.77;;;3.00;99.90;;;;;;5028916;28;20335;-25
2022/01/14 06:42:50;;;;;;;37.37;23.93;;;3.10;99.90;;;;;;5029571;28;20196;-24
2022/01/14 06:45:17;;;;;;;45.03;24.27;;;3.10;99.90;;;;;;5029092;28;20212;-24
2022/01/14 06:47:44;;;;;;;37.37;24.13;;;3.10;99.90;;;;;;5028914;28;20729;-25
2022/01/14 06:50:14;;;;;;;41.43;24.60;;;3.10;99.90;;;;;;5030068;28;20333;-25
2022/01/14 06:52:44;;;;;;;40.63;23.87;;;3.10;99.90;;;;;;5029664;28;20406;-25
2022/01/14 06:55:13;;;;;;;42.83;24.23;;;3.10;99.90;;;;;;5029155;28;20197;-25
2022/01/14 06:57:42;;;;;;;38.53;24.50;;;3.10;99.90;;;;;;5029322;28;20319;-25
2022/01/14 07:00:12;;;;;;;40.87;24.33;;;3.10;99.90;;;;;;5030300;28;20208;-24
2022/01/14 07:02:42;;;;;;;37.60;23.83;;;3.10;99.90;;;;;;5027533;28;20596;-25
2022/01/14 07:05:10;;;;;;;39.90;24.30;;;3.10;99.90;;;;;;5028079;28;20296;-24
2022/01/14 07:07:43;;;;;;;40.53;24.30;;;3.10;99.90;;;;;;5029806;28;20312;-25
2022/01/14 07:10:13;;;;;;;41.23;24.87;;;3.10;99.90;;;;;;5029645;28;20591;-25
2022/01/14 07:12:43;;;;;;;38.57;23.90;;;3.10;99.90;;;;;;5028849;28;20204;-25
2022/01/14 07:15:13;;;;;;;44.13;24.17;;;3.10;99.90;;;;;;5028021;28;20208;-24
2022/01/14 07:17:41;;;;;;;39.80;24.10;;;3.10;99.90;;;;;;5028924;28;20762;-24
2022/01/14 07:20:13;;;;;;;44.27;25.30;;;3.10;99.90;;;;;;5027726;28;20201;-24
2022/01/14 07:22:46;;;;;;;37.60;23.00;;;3.20;99.90;;;;;;5027692;28;20718;-25
2022/01/14 07:25:18;;;;;;;39.07;25.00;;;3.20;99.90;;;;;;5019279;28;20208;-24
2022/01/14 07:27:46;;;;;;;43.80;24.60;;;3.20;99.90;;;;;;5009006;28;20213;-25
2022/01/14 07:30:17;;;;;;;40.93;24.30;;;3.20;99.90;;;;;;5009537;28;20288;-24
2022/01/14 07:32:45;;;;;;;41.37;25.37;;;3.20;99.90;;;;;;5007276;28;20555;-25
2022/01/14 07:35:12;;;;;;;41.67;24.87;;;3.20;99.90;;;;;;5009357;28;20208;-24
2022/01/14 07:37:39;;;;;;;46.40;24.80;;;3.20;99.90;;;;;;5017787;28;20228;-25
2022/01/14 07:40:07;;;;;;;39.17;24.80;;;3.20;99.90;;;;;;5028867;28;20648;-25
2022/01/14 07:42:34;;;;;;;42.80;25.23;;;3.20;99.90;;;;;;5029042;28;20203;-25
2022/01/14 07:45:04;;;;;;;46.10;27.17;;;3.20;99.90;;;;;;5028931;28;20209;-26
2022/01/14 07:47:32;;;;;;;42.00;24.83;;;3.20;99.90;;;;;;5027480;28;20232;-26
2022/01/14 07:49:59;;;;;;;43.90;25.87;;;3.20;99.90;;;;;;5027935;28;20244;-26
2022/01/14 07:52:27;;;;;;;53.20;26.73;;;3.20;99.90;;;;;;5028616;28;20304;-27
2022/01/14 07:54:54;;;;;;;53.83;27.07;;;3.20;99.90;;;;;;5028721;28;20220;-26
2022/01/14 07:57:23;;;;;;;50.03;26.77;;;3.20;99.90;;;;;;5027024;28;20702;-26
2022/01/14 07:59:50;;;;;;;48.87;26.33;;;3.20;99.90;;;;;;5028687;28;20201;-26
2022/01/14 08:02:20;;;;;;;50.67;25.40;;;3.20;99.90;;;;;;5028698;28;20211;-26
2022/01/14 08:04:48;;;;;;;48.23;27.67;;;3.20;99.90;;;;;;5027542;28;20200;-26
2022/01/14 08:07:22;;;;;;;44.83;26.23;;;3.30;99.90;;;;;;5028192;28;20205;-29
2022/01/14 08:09:57;;;;;;;45.93;25.93;;;3.30;99.90;;;;;;5028547;28;20219;-26
2022/01/14 08:12:24;;;;;;;47.40;26.37;;;3.30;99.90;;;;;;5027938;28;20382;-26
2022/01/14 08:14:54;;;;;;;45.00;25.23;;;3.30;99.90;;;;;;5028810;28;20804;-26
2022/01/14 08:17:21;;;;;;;50.97;25.57;;;3.30;99.90;;;;;;5027076;28;20217;-27
2022/01/14 08:19:51;;;;;;;44.30;26.03;;;3.40;99.90;;;;;;5027492;28;20248;-26
2022/01/14 08:22:18;;;;;;;53.93;26.97;;;3.40;99.90;;;;;;5028400;28;20223;-27
2022/01/14 08:24:46;;;;;;;54.60;26.87;;;3.40;99.90;;;;;;5028051;28;20216;-26
2022/01/14 08:27:13;;;;;;;49.23;27.20;;;3.40;99.90;;;;;;5027734;28;20591;-26
2022/01/14 08:29:44;;;;;;;47.47;26.27;;;3.40;99.90;;;;;;5027934;28;20251;-26
2022/01/14 08:32:11;;;;;;;45.23;25.87;;;3.40;99.90;;;;;;5028225;28;20201;-26
2022/01/14 08:34:41;;;;;;;63.97;30.40;;;3.50;99.90;;;;;;5027584;28;20197;-26
2022/01/14 08:37:11;;;;;;;56.33;28.97;;;3.40;99.90;;;;;;5027802;28;20355;-26
2022/01/14 08:39:39;;;;;;;48.90;27.23;;;3.40;99.90;;;;;;5027879;28;20280;-26
2022/01/14 08:42:12;;;;;;;49.87;26.07;;;3.40;99.90;;;;;;5026192;28;20212;-26
2022/01/14 08:44:40;;;;;;;46.27;25.83;;;3.40;99.90;;;;;;5027895;28;20256;-26
2022/01/14 08:47:09;;;;;;;47.50;27.17;;;3.40;99.90;;;;;;5007726;28;20580;-26
2022/01/14 08:49:42;;;;;;;43.93;25.63;;;3.40;99.90;;;;;;5005549;28;20233;-26
2022/01/14 08:52:11;;;;;;;46.37;26.63;;;3.50;99.90;;;;;;5008352;28;20629;-26
2022/01/14 08:54:39;;;;;;;42.07;24.63;;;3.50;99.90;;;;;;5007856;28;20563;-26
2022/01/14 08:57:07;;;;;;;44.30;26.53;;;3.50;99.90;;;;;;5007164;28;20226;-26
2022/01/14 08:59:36;;;;;;;56.67;28.13;;;3.50;99.90;;;;;;5007955;28;20193;-26
2022/01/14 09:02:04;;;;;;;94.10;32.43;;;3.50;99.90;;;;;;5012013;28;20220;-26
2022/01/14 09:04:34;;;;;;;62.47;30.27;;;3.50;99.90;;;;;;5026600;28;20193;-26
2022/01/14 09:07:04;;;;;;;59.80;29.90;;;3.50;99.90;;;;;;5027444;28;20214;-26
2022/01/14 09:09:34;;;;;;;89.57;33.63;;;3.50;99.90;;;;;;5026986;28;20548;-26
2022/01/14 09:12:02;;;;;;;58.33;31.10;;;3.60;99.90;;;;;;5027245;28;20220;-26
2022/01/14 09:14:29;;;;;;;58.53;31.30;;;3.60;99.90;;;;;;5025914;28;20208;-26
2022/01/14 09:16:57;;;;;;;56.73;29.33;;;3.60;99.90;;;;;;5027280;28;20319;-26
2022/01/14 09:19:24;;;;;;;51.17;28.97;;;3.70;99.90;;;;;;5025011;28;20193;-26
2022/01/14 09:21:54;;;;;;;50.97;27.40;;;3.70;99.90;;;;;;5025772;28;20216;-26
2022/01/14 09:24:42;;;;;;;50.57;29.30;;;3.70;99.90;;;;;;5027441;28;20205;-26
2022/01/14 09:27:14;;;;;;;50.70;28.73;;;3.80;99.90;;;;;;5025585;28;20242;-26
2022/01/14 09:29:46;;;;;;;58.93;30.57;;;3.80;99.90;;;;;;5027489;28;20220;-26
2022/01/14 09:32:16;;;;;;;49.57;28.50;;;3.90;99.90;;;;;;5027443;28;20652;-26
2022/01/14 09:34:46;;;;;;;63.07;29.87;;;3.90;99.90;;;;;;5026917;28;20205;-26
2022/01/14 09:37:13;;;;;;;62.77;31.00;;;3.90;99.90;;;;;;5027070;28;20262;-26
2022/01/14 09:39:43;;;;;;;82.23;33.23;;;4.00;99.90;;;;;;5027328;28;20205;-26
2022/01/14 09:42:14;;;;;;;70.00;31.67;;;4.00;99.90;;;;;;5026786;28;20201;-26
2022/01/14 09:44:43;;;;;;;53.93;29.47;;;4.10;99.90;;;;;;5025740;28;20212;-26
2022/01/14 09:47:18;;;;;;;68.47;30.80;;;4.10;99.90;;;;;;5027654;28;20211;-26
2022/01/14 09:49:46;;;;;;;59.80;31.23;;;4.20;99.90;;;;;;5009061;28;20638;-26
2022/01/14 09:52:15;;;;;;;69.50;30.60;;;4.20;99.90;;;;;;5027566;28;20206;-26
2022/01/14 09:54:50;;;;;;;79.13;33.03;;;4.30;99.90;;;;;;5027161;28;20811;-26
2022/01/14 09:57:18;;;;;;;97.10;35.47;;;4.30;99.90;;;;;;5026785;28;20228;-26
2022/01/14 09:59:46;;;;;;;95.97;35.63;;;4.40;99.90;;;;;;5027598;28;20633;-26
2022/01/14 10:02:34;;;;;;;62.80;29.50;;;4.40;99.90;;;;;;5028147;28;20248;-26
2022/01/14 10:05:05;;;;;;;58.90;30.23;;;4.50;99.90;;;;;;5026988;28;20594;-26
2022/01/14 10:07:33;;;;;;;78.87;31.37;;;4.50;99.90;;;;;;5026574;28;20205;-26
2022/01/14 10:10:22;;;;;;;63.57;31.40;;;4.60;99.90;;;;;;5027629;28;20673;-26
2022/01/14 10:12:52;;;;;;;58.73;30.77;;;4.70;99.90;;;;;;5022105;28;20274;-26
2022/01/14 10:15:19;;;;;;;58.37;29.60;;;4.70;99.90;;;;;;5027282;28;20577;-26
2022/01/14 10:17:46;;;;;;;54.37;30.63;;;4.80;99.90;;;;;;5028070;28;20224;-26
2022/01/14 10:20:18;;;;;;;48.43;29.40;;;4.80;99.90;;;;;;5026732;28;20225;-26
2022/01/14 10:22:48;;;;;;;47.13;27.87;;;4.90;99.90;;;;;;5027638;28;20189;-26
2022/01/14 10:25:22;;;;;;;53.53;28.87;;;4.90;99.90;;;;;;5027222;28;20208;-26
2022/01/14 10:27:54;;;;;;;53.93;29.50;;;5.00;99.90;;;;;;5022614;28;20201;-26
2022/01/14 10:30:28;;;;;;;48.37;29.20;;;5.10;99.90;;;;;;5027868;28;20295;-26
2022/01/14 10:33:02;;;;;;;42.17;28.07;;;5.10;99.90;;;;;;5030733;28;20645;-26
2022/01/14 10:35:35;;;;;;;47.57;28.70;;;5.20;99.90;;;;;;5028969;28;20204;-26
2022/01/14 10:38:08;;;;;;;45.07;28.87;;;5.30;99.90;;;;;;5030826;28;20254;-26
2022/01/14 10:40:41;;;;;;;46.37;28.63;;;5.30;99.90;;;;;;5029351;28;20246;-26
2022/01/14 10:43:10;;;;;;;40.00;28.00;;;5.40;99.90;;;;;;5030325;28;20208;-26
2022/01/14 10:45:55;;;;;;;48.40;29.53;;;5.40;99.90;;;;;;5031227;28;20813;-26
2022/01/14 10:48:37;;;;;;;49.00;28.20;;;5.50;99.90;;;;;;5045459;28;20197;-26
2022/01/14 10:51:13;;;;;;;45.23;28.60;;;5.50;99.90;;;;;;5030582;28;20228;-26
2022/01/14 10:53:42;;;;;;;45.00;27.60;;;5.60;99.90;;;;;;5028381;28;20209;-26
2022/01/14 10:56:13;;;;;;;40.77;27.53;;;5.60;99.90;;;;;;5029862;28;20221;-26
2022/01/14 10:58:50;;;;;;;47.83;28.50;;;5.70;99.90;;;;;;5028103;28;20219;-26
2022/01/14 11:01:21;;;;;;;47.97;27.97;;;5.80;99.90;;;;;;5030026;28;20231;-26
2022/01/14 11:04:00;;;;;;;46.23;29.40;;;5.80;99.90;;;;;;5028070;28;20213;-26
2022/01/14 11:06:33;;;;;;;46.40;29.13;;;5.90;99.90;;;;;;5029005;28;20228;-26
2022/01/14 11:09:05;;;;;;;47.90;29.40;;;5.90;99.90;;;;;;5028614;28;20217;-26
2022/01/14 11:11:35;;;;;;;46.33;28.43;;;6.00;99.90;;;;;;5030310;28;21110;-26
2022/01/14 11:14:04;;;;;;;40.73;28.30;;;6.00;99.90;;;;;;5029274;28;20251;-26
2022/01/14 11:16:37;;;;;;;45.77;28.60;;;6.10;99.90;;;;;;5029753;28;20678;-26
2022/01/14 11:19:08;;;;;;;45.80;26.77;;;6.10;99.90;;;;;;5029154;28;20209;-26
2022/01/14 11:24:24;;;;;;;38.57;26.53;;;6.20;99.90;;;;;;5029794;28;20201;-26
2022/01/14 11:26:59;;;;;;;44.53;28.30;;;6.30;99.90;;;;;;5027358;28;20292;-26
2022/01/14 11:29:35;;;;;;;47.43;28.50;;;6.30;99.90;;;;;;5029091;28;20211;-26
2022/01/14 11:32:05;;;;;;;38.20;26.93;;;6.40;99.90;;;;;;5029462;28;20251;-26
2022/01/14 11:34:45;;;;;;;38.67;26.77;;;6.50;99.90;;;;;;5028745;28;20205;-26
2022/01/14 11:37:30;;;;;;;42.87;27.13;;;6.50;99.90;;;;;;5029233;28;20216;-26
2022/01/14 11:40:03;;;;;;;42.43;27.27;;;6.60;99.90;;;;;;5028669;28;20274;-26
2022/01/14 11:42:48;;;;;;;39.07;26.07;;;6.60;99.90;;;;;;5027212;28;20205;-26
2022/01/14 11:45:18;;;;;;;45.83;27.57;;;6.70;99.90;;;;;;5027495;28;20201;-26
2022/01/14 11:47:49;;;;;;;41.17;26.87;;;6.70;99.90;;;;;;5026976;28;20431;-26
2022/01/14 11:50:18;;;;;;;42.67;27.10;;;6.80;99.90;;;;;;5027997;28;20271;-26
2022/01/14 11:52:49;;;;;;;41.00;25.97;;;6.90;99.90;;;;;;5028490;28;20278;-26
2022/01/14 11:55:23;;;;;;;35.73;24.77;;;6.90;99.90;;;;;;5028622;28;20398;-26
2022/01/14 11:58:03;;;;;;;39.30;25.37;;;7.00;99.90;;;;;;5021427;28;20279;-26
2022/01/14 12:00:37;;;;;;;38.93;24.77;;;7.10;99.90;;;;;;5023570;28;20208;-26
2022/01/14 12:03:07;;;;;;;34.67;24.93;;;7.20;99.90;;;;;;5008722;28;20212;-26
2022/01/14 12:05:59;;;;;;;37.27;23.77;;;7.30;99.90;;;;;;5007900;28;20218;-26
2022/01/14 12:08:26;;;;;;;38.50;25.20;;;7.30;99.90;;;;;;5008695;28;20237;-26
2022/01/14 12:11:00;;;;;;;39.40;25.40;;;7.40;99.90;;;;;;5027634;28;20254;-26
2022/01/14 12:13:49;;;;;;;40.00;26.87;;;7.50;99.90;;;;;;5026287;28;20255;-26
2022/01/14 12:16:19;;;;;;;35.20;24.57;;;7.60;99.90;;;;;;5028364;28;20204;-26
2022/01/14 12:18:59;;;;;;;34.73;23.93;;;7.60;99.90;;;;;;5027947;28;20331;-26
2022/01/14 12:21:48;;;;;;;34.53;23.93;;;7.70;99.90;;;;;;5028347;28;20213;-26
2022/01/14 12:24:18;;;;;;;36.57;21.90;;;7.80;99.90;;;;;;5027732;28;20201;-26
2022/01/14 12:26:55;;;;;;;35.33;21.77;;;7.80;99.90;;;;;;5027386;28;20197;-26
2022/01/14 12:29:40;;;;;;;28.80;21.23;;;7.90;99.90;;;;;;5016023;28;20207;-26
2022/01/14 12:32:10;;;;;;;30.30;22.63;;;8.00;99.90;;;;;;5008111;28;20209;-26
2022/01/14 12:35:05;;;;;;;31.70;21.77;;;8.00;99.90;;;;;;5007236;28;20217;-26
2022/01/14 12:37:33;;;;;;;38.03;24.13;;;8.10;99.90;;;;;;5007949;28;20229;-26
2022/01/14 12:40:11;;;;;;;32.07;22.73;;;8.10;99.90;;;;;;5007789;28;20714;-26
2022/01/14 12:42:40;;;;;;;34.80;22.70;;;8.10;99.90;;;;;;5008036;28;20213;-26
2022/01/14 12:45:10;;;;;;;32.03;21.90;;;8.20;99.90;;;;;;5008200;28;20580;-26
2022/01/14 12:47:41;;;;;;;34.40;22.03;;;8.20;99.90;;;;;;5007877;28;20243;-26
2022/01/14 12:50:12;;;;;;;34.90;22.60;;;8.30;99.90;;;;;;5006922;28;20248;-26
2022/01/14 12:52:50;;;;;;;34.27;22.57;;;8.30;99.90;;;;;;5007218;28;20209;-26
2022/01/14 12:55:20;;;;;;;35.20;23.30;;;8.40;99.90;;;;;;5007664;28;20586;-26
2022/01/14 12:57:47;;;;;;;32.23;22.27;;;8.40;99.90;;;;;;5007015;28;20276;-26
2022/01/14 13:00:16;;;;;;;30.00;21.03;;;8.50;99.90;;;;;;5019192;28;20213;-26
2022/01/14 13:02:43;;;;;;;34.17;23.87;;;8.50;99.90;;;;;;5026069;28;20201;-26
2022/01/14 13:05:16;;;;;;;37.00;23.13;;;8.60;99.90;;;;;;5026756;28;20197;-26
2022/01/14 13:07:44;;;;;;;38.73;22.20;;;8.60;99.90;;;;;;5026159;28;20667;-26
2022/01/14 13:10:14;;;;;;;32.70;21.37;;;8.60;99.90;;;;;;5027411;28;20212;-26
2022/01/14 13:12:44;;;;;;;33.60;21.83;;;8.70;99.90;;;;;;5027720;28;20624;-26
2022/01/14 13:15:20;;;;;;;31.23;20.50;;;8.70;99.90;;;;;;5027121;28;20212;-26
2022/01/14 13:17:54;;;;;;;32.10;20.90;;;8.70;99.90;;;;;;5027051;28;20703;-26
2022/01/14 13:20:21;;;;;;;33.93;21.77;;;8.70;99.90;;;;;;5026486;28;20193;-26